Aérodrome :
LOGIN :

S'inscrire | Disclaimer

   EN    FR    IT 

 










Légende :    VFR   VFR Marginal   IFR   IFR Intensif   IFR Très Intensif
Visi : 
Plafond : 
>= 8 km
>= 3000ft
5 à 8 km
1000 à 3000 ft
1500m à 5 km
500 à 1000 ft
800 à 1500m
200 à 500 ft
< 800m
< 200 ft
Symboles :   Orages  Brouillard  Fortes neiges  Fortes précipitations  Vent > 20 kt
SIGMETs :   Divers  Orages  Givrage  Turbulence  Onde Orograph.  Cendres Volcan.







- Altitude de l'aérodrome : 1682 ft
- Code IATA : VIT


LEVT - Vitoria Gasteiz

DERNIER METAR :
  • 180100Z VRB02KT 9000 FEW025 SCT034 04/03 Q1033

METARs EXPIRÉS :
  • 180030Z VRB02KT 9000 FEW025 BKN034 04/03 Q1033
  • 180000Z 00000KT 8000 -RA FEW015 SCT020 BKN025 04/03 Q1034
  • 172330Z 00000KT 9999 -RA FEW020 SCT027 BKN030 04/03 Q1034
  • 172300Z 22003KT 9999 SCT027 BKN035 04/03 Q1034
  • 172230Z 22003KT 9999 SCT027 BKN035 04/03 Q1034

TAF AMD TAF LEVT
Valide du 18 à 00h jusqu'au 19 à 00h UTC


172339Z 1800/1824 VRB05KT 9999 FEW025 SCT040 TX09/1814Z TNM02/1806Z
PROB40
TEMPO 1805/1809 1400 BCFG BKN003
PROB30
TEMPO 1806/1808 0800 FZFG BKN001
BECMG 1814/1816 29010KT
PROB40
TEMPO 1815/1824 4500 -RA BKN012
PROB30
TEMPO 1818/1824 36012G22KT 2500 RA BKN006
Pas de NOTAMs connus pour ce terrain.



MET'MAP, la Météo Aéronautique d'un coup d'oeil ! - Copyright ORBIFLY Décembre 2007 - Disclaimer

ORBIFLY MET'MAP TEAM :

Programmation & Développement : Alexandra Zaïnal
Conception & Développement : Baudouin d'Aumeries
Co-Programmation & Développement : Marc-Olivier Méhu
Soutien technique & logistique : Manuel Goepfert

Contact : metmap@orbifly.com




SOURCES & CREDITS :

   NOAA